createdAt,value
2019-04-22T00:01:16.424Z,48.16
2019-04-22T00:03:45.292Z,48.49
2019-04-22T00:06:32.533Z,48.76
2019-04-22T00:09:04.038Z,48.77
2019-04-22T00:11:29.255Z,48.79
2019-04-22T00:13:59.558Z,49.00
2019-04-22T00:16:33.529Z,49.19
2019-04-22T00:19:07.825Z,49.21
2019-04-22T00:21:25.725Z,49.48
2019-04-22T00:23:52.980Z,49.56
2019-04-22T00:26:23.984Z,49.86
2019-04-22T00:31:21.176Z,49.88
2019-04-22T00:33:48.098Z,49.80
2019-04-22T00:36:16.587Z,49.94
2019-04-22T00:38:44.186Z,50.07
2019-04-22T00:41:14.936Z,50.12
2019-04-22T00:43:49.377Z,50.04
2019-04-22T00:46:11.372Z,50.26
2019-04-22T00:48:43.049Z,50.53
2019-04-22T00:51:13.906Z,50.70
2019-04-22T00:53:56.104Z,50.90
2019-04-22T00:58:40.650Z,51.21
2019-04-22T01:01:12.632Z,51.25
2019-04-22T01:03:44.807Z,51.26
2019-04-22T01:06:09.549Z,51.34
2019-04-22T01:08:40.292Z,51.24
2019-04-22T01:11:03.288Z,51.32
2019-04-22T01:13:34.679Z,51.33
2019-04-22T01:16:07.837Z,51.53
2019-04-22T01:18:27.948Z,51.47
2019-04-22T01:23:26.802Z,51.60
2019-04-22T01:25:53.041Z,51.74
2019-04-22T01:28:22.379Z,51.97
2019-04-22T01:30:43.835Z,52.22
2019-04-22T01:33:13.985Z,52.22
2019-04-22T01:35:53.562Z,52.17
2019-04-22T01:38:18.896Z,52.28
2019-04-22T01:41:04.626Z,52.30
2019-04-22T01:43:24.610Z,52.51
2019-04-22T01:45:53.338Z,52.44
2019-04-22T01:48:26.407Z,52.54
2019-04-22T01:50:49.683Z,52.57
2019-04-22T01:53:19.380Z,52.49
2019-04-22T01:55:46.940Z,52.23
2019-04-22T01:58:12.165Z,52.19
2019-04-22T02:00:50.492Z,52.30
2019-04-22T02:03:17.554Z,52.51
2019-04-22T02:05:43.999Z,52.69
2019-04-22T02:08:15.150Z,52.69
2019-04-22T02:13:06.715Z,52.89
2019-04-22T02:15:46.498Z,52.95
2019-04-22T02:18:18.687Z,52.92
2019-04-22T02:20:40.304Z,52.81
2019-04-22T02:23:45.440Z,52.88
2019-04-22T02:31:20.654Z,53.34
2019-04-22T02:33:55.616Z,53.42
2019-04-22T02:38:44.991Z,52.82
2019-04-22T02:41:20.988Z,52.82
2019-04-22T02:43:56.877Z,52.90
2019-04-22T02:46:13.438Z,53.27
2019-04-22T02:48:50.343Z,53.50
2019-04-22T02:53:45.041Z,53.38
2019-04-22T02:56:04.908Z,53.47
2019-04-22T02:58:35.673Z,53.47
2019-04-22T03:01:01.232Z,53.25
2019-04-22T03:03:31.054Z,53.56
2019-04-22T03:08:23.611Z,53.50
2019-04-22T03:10:56.689Z,53.26
2019-04-22T03:15:52.496Z,53.83
2019-04-22T03:18:21.783Z,53.93
2019-04-22T03:20:51.862Z,54.03
2019-04-22T03:26:01.277Z,54.04
2019-04-22T03:28:08.824Z,54.26
2019-04-22T03:40:50.439Z,54.13
2019-04-22T03:43:14.162Z,54.11
2019-04-22T03:45:30.302Z,54.28
2019-04-22T03:48:23.913Z,54.33
2019-04-22T03:50:36.528Z,54.38
2019-04-22T03:55:38.730Z,54.29
2019-04-22T03:57:59.594Z,54.44
2019-04-22T04:00:44.565Z,54.51
2019-04-22T04:03:06.854Z,54.65
2019-04-22T04:15:30.086Z,54.98
2019-04-22T04:18:07.346Z,54.98
2019-04-22T04:20:39.408Z,54.95
2019-04-22T04:23:24.123Z,54.81
2019-04-22T04:25:42.520Z,54.92
2019-04-22T04:30:32.075Z,55.01
2019-04-22T04:33:05.180Z,55.24
2019-04-22T04:35:40.535Z,55.53
2019-04-22T04:37:55.741Z,55.51
2019-04-22T04:40:34.485Z,55.35
2019-04-22T04:42:58.493Z,55.29
2019-04-22T04:47:58.007Z,55.59
2019-04-22T04:50:18.609Z,55.42
2019-04-22T04:53:09.785Z,55.55
2019-04-22T04:55:36.162Z,55.40
2019-04-22T05:12:52.854Z,55.74
2019-04-22T05:15:12.033Z,55.98
2019-04-22T05:17:45.494Z,56.20
2019-04-22T05:20:17.955Z,56.45
2019-04-22T05:22:35.696Z,56.51
2019-04-22T05:25:06.049Z,56.23
2019-04-22T05:30:21.495Z,56.37
2019-04-22T05:32:24.585Z,56.42
2019-04-22T05:34:55.764Z,56.60
2019-04-22T05:39:52.394Z,56.91
2019-04-22T05:42:21.696Z,56.95
2019-04-22T05:44:49.914Z,57.27
2019-04-22T05:47:17.221Z,57.34
2019-04-22T05:49:45.860Z,57.34
2019-04-22T05:52:14.924Z,57.05
2019-04-22T05:54:38.671Z,57.07
2019-04-22T05:57:15.147Z,56.94
2019-04-22T06:02:21.209Z,56.88
2019-04-22T06:04:37.116Z,56.82
2019-04-22T06:07:06.465Z,56.63
2019-04-22T06:09:32.373Z,56.68
2019-04-22T06:12:01.773Z,56.52
2019-04-22T06:14:32.273Z,56.47
2019-04-22T06:17:11.262Z,56.45
2019-04-22T06:19:31.317Z,56.59
2019-04-22T06:22:09.656Z,56.33
2019-04-22T06:24:54.100Z,56.40
2019-04-22T06:27:10.271Z,56.08
2019-04-22T06:29:41.667Z,55.33
2019-04-22T06:32:17.884Z,55.11
2019-04-22T06:34:34.187Z,54.80
2019-04-22T06:37:05.328Z,54.20
2019-04-22T06:39:31.919Z,54.00
2019-04-22T06:41:58.902Z,53.58
2019-04-22T06:44:24.161Z,53.42
2019-04-22T06:46:52.287Z,53.60
2019-04-22T06:49:27.998Z,53.54
2019-04-22T06:51:45.375Z,53.02
2019-04-22T06:54:14.135Z,52.60
2019-04-22T06:56:43.155Z,52.04
2019-04-22T06:59:11.629Z,51.67
2019-04-22T07:01:43.142Z,51.57
2019-04-22T07:04:22.266Z,50.93
2019-04-22T07:06:41.643Z,50.43
2019-04-22T07:11:30.697Z,49.02
2019-04-22T07:19:02.190Z,47.72
2019-04-22T07:21:34.608Z,47.08
2019-04-22T07:24:07.028Z,46.88
2019-04-22T07:26:25.146Z,47.10
2019-04-22T07:28:57.913Z,47.04
2019-04-22T07:31:20.536Z,46.22
2019-04-22T07:33:56.853Z,43.68
2019-04-22T07:36:38.257Z,43.04
2019-04-22T07:38:42.452Z,42.65
2019-04-22T07:41:20.029Z,42.50
2019-04-22T07:46:13.638Z,42.43
2019-04-22T07:48:49.912Z,41.55
2019-04-22T07:51:13.305Z,41.25
2019-04-22T07:53:39.223Z,41.07
2019-04-22T07:56:11.853Z,41.55
2019-04-22T07:58:36.129Z,41.55
2019-04-22T08:01:12.323Z,41.10
2019-04-22T08:03:45.399Z,40.85
2019-04-22T08:06:12.359Z,40.97
2019-04-22T08:11:22.460Z,40.77
2019-04-22T08:13:34.248Z,40.42
2019-04-22T08:16:04.863Z,40.72
2019-04-22T08:18:37.497Z,40.01
2019-04-22T08:20:58.965Z,40.45
2019-04-22T08:23:31.693Z,39.90
2019-04-22T08:25:59.455Z,39.27
2019-04-22T08:28:33.937Z,38.14
2019-04-22T08:33:29.574Z,37.97
2019-04-22T08:36:09.050Z,38.17
2019-04-22T08:38:28.701Z,37.67
2019-04-22T08:41:06.531Z,37.99
2019-04-22T08:43:36.682Z,38.00
2019-04-22T08:45:57.125Z,37.75
2019-04-22T08:48:32.642Z,38.23
2019-04-22T08:51:00.699Z,38.12
2019-04-22T08:53:26.468Z,38.23
2019-04-22T08:56:07.362Z,37.85
2019-04-22T09:03:17.360Z,38.66
2019-04-22T09:06:02.432Z,38.68
2019-04-22T09:08:19.333Z,39.46
2019-04-22T09:13:13.877Z,38.01
2019-04-22T09:15:45.537Z,37.81
2019-04-22T09:18:16.181Z,37.96
2019-04-22T09:20:40.343Z,38.99
2019-04-22T09:23:21.499Z,38.43
2019-04-22T09:28:10.505Z,38.48
2019-04-22T09:30:40.034Z,38.28
2019-04-22T09:33:20.852Z,37.95
2019-04-22T09:36:07.872Z,36.61
2019-04-22T09:38:31.246Z,36.78
2019-04-22T09:40:52.683Z,36.91
2019-04-22T09:43:24.183Z,37.43
2019-04-22T09:45:48.043Z,37.64
2019-04-22T09:48:28.217Z,37.26
2019-04-22T09:50:48.048Z,37.59
2019-04-22T09:53:20.105Z,37.62
2019-04-22T09:55:47.752Z,37.84
2019-04-22T09:58:16.171Z,36.89
2019-04-22T10:01:13.212Z,37.21
2019-04-22T10:03:36.531Z,38.10
2019-04-22T10:06:12.868Z,38.44
2019-04-22T10:08:34.053Z,36.88
2019-04-22T10:11:05.584Z,36.46
2019-04-22T10:13:36.097Z,37.07
2019-04-22T10:16:03.142Z,36.34
2019-04-22T10:18:26.313Z,36.25
2019-04-22T10:20:54.212Z,36.19
2019-04-22T10:23:25.007Z,35.59
2019-04-22T10:25:54.094Z,35.36
2019-04-22T10:28:28.653Z,34.35
2019-04-22T10:30:47.326Z,34.55
2019-04-22T10:33:10.077Z,35.11
2019-04-22T10:35:23.578Z,34.38
2019-04-22T10:37:50.061Z,34.34
2019-04-22T10:40:19.464Z,34.33
2019-04-22T10:42:47.299Z,33.94
2019-04-22T10:45:14.659Z,33.36
2019-04-22T10:47:42.332Z,33.72
2019-04-22T10:50:12.369Z,32.59
2019-04-22T10:52:39.429Z,34.08
2019-04-22T10:55:09.776Z,32.82
2019-04-22T10:57:36.965Z,32.15
2019-04-22T11:00:06.103Z,32.71
2019-04-22T11:02:32.887Z,32.95
2019-04-22T11:04:59.639Z,31.86
2019-04-22T11:07:38.676Z,30.72
2019-04-22T11:10:15.435Z,30.71
2019-04-22T11:12:29.989Z,30.51
2019-04-22T11:14:55.855Z,30.58
2019-04-22T11:17:23.971Z,30.53
2019-04-22T11:19:50.775Z,30.19
2019-04-22T11:22:23.941Z,28.61
2019-04-22T11:24:46.679Z,29.04
2019-04-22T11:27:14.759Z,29.11
2019-04-22T11:29:41.835Z,29.09
2019-04-22T11:32:08.660Z,27.80
2019-04-22T11:34:35.493Z,28.00
2019-04-22T11:37:03.293Z,28.18
2019-04-22T11:39:32.794Z,27.44
2019-04-22T11:41:58.648Z,26.91
2019-04-22T11:44:27.525Z,26.35
2019-04-22T11:46:54.391Z,26.70
2019-04-22T11:49:21.886Z,26.64
2019-04-22T11:51:49.863Z,27.18
2019-04-22T11:54:17.032Z,26.44
2019-04-22T11:56:45.212Z,26.68
2019-04-22T11:59:12.977Z,26.84
2019-04-22T12:01:39.829Z,26.12
2019-04-22T12:04:07.654Z,26.93
2019-04-22T12:06:35.865Z,26.22
2019-04-22T12:09:07.697Z,27.22
2019-04-22T12:11:34.584Z,25.98
2019-04-22T12:14:02.114Z,26.14
2019-04-22T12:16:29.667Z,25.96
2019-04-22T12:18:58.500Z,26.58
2019-04-22T12:21:24.986Z,25.90
2019-04-22T12:23:52.799Z,26.13
2019-04-22T12:26:21.491Z,25.99
2019-04-22T12:28:49.030Z,25.22
2019-04-22T12:31:17.493Z,24.76
2019-04-22T12:33:45.422Z,24.87
2019-04-22T12:36:12.789Z,25.16
2019-04-22T12:38:40.000Z,25.10
2019-04-22T12:41:11.968Z,24.81
2019-04-22T12:43:38.702Z,24.13
2019-04-22T12:46:05.996Z,24.68
2019-04-22T12:48:32.942Z,24.00
2019-04-22T12:51:00.898Z,23.98
2019-04-22T12:53:28.129Z,24.45
2019-04-22T12:55:55.854Z,23.98
2019-04-22T12:58:23.623Z,23.80
2019-04-22T13:00:51.428Z,24.17
2019-04-22T13:03:20.371Z,24.11
2019-04-22T13:05:47.338Z,22.52
2019-04-22T13:08:14.057Z,23.07
2019-04-22T13:10:51.354Z,24.36
2019-04-22T13:13:11.166Z,24.36
2019-04-22T13:15:39.222Z,23.81
2019-04-22T13:18:17.075Z,25.18
2019-04-22T13:20:34.684Z,24.15
2019-04-22T13:23:02.125Z,24.14
2019-04-22T13:25:31.937Z,24.61
2019-04-22T13:27:57.715Z,23.79
2019-04-22T13:30:26.316Z,23.85
2019-04-22T13:32:54.558Z,23.80
2019-04-22T13:35:24.157Z,23.57
2019-04-22T13:37:52.939Z,24.05
2019-04-22T13:40:21.089Z,24.02
2019-04-22T13:42:49.122Z,22.72
2019-04-22T13:45:19.599Z,23.52
2019-04-22T13:48:02.877Z,23.41
2019-04-22T13:57:58.363Z,22.54
2019-04-22T14:00:18.407Z,23.07
2019-04-22T14:02:46.466Z,23.49
2019-04-22T14:05:14.884Z,22.85
2019-04-22T14:07:43.089Z,22.93
2019-04-22T14:10:10.213Z,23.06
2019-04-22T14:12:37.138Z,23.24
2019-04-22T14:15:06.899Z,22.79
2019-04-22T14:17:34.845Z,22.98
2019-04-22T14:20:06.796Z,23.20
2019-04-22T14:22:34.648Z,23.14
2019-04-22T14:25:02.873Z,22.87
2019-04-22T14:27:43.532Z,22.58
2019-04-22T14:29:59.770Z,22.69
2019-04-22T14:32:29.322Z,23.05
2019-04-22T14:34:55.292Z,23.17
2019-04-22T14:37:22.477Z,23.21
2019-04-22T14:39:49.218Z,22.92
2019-04-22T14:42:36.411Z,22.44
2019-04-22T14:45:20.254Z,22.52
2019-04-22T14:47:45.581Z,22.06
2019-04-22T14:50:05.290Z,22.38
2019-04-22T14:52:36.032Z,22.46
2019-04-22T14:54:52.083Z,22.60
2019-04-22T14:57:08.497Z,21.76
2019-04-22T14:59:35.817Z,21.73
2019-04-22T15:02:03.537Z,22.12
2019-04-22T15:04:31.031Z,22.29
2019-04-22T15:06:59.062Z,21.63
2019-04-22T15:09:26.159Z,22.30
2019-04-22T15:12:04.947Z,23.01
2019-04-22T15:14:21.609Z,22.66
2019-04-22T15:16:48.846Z,23.21
2019-04-22T15:19:15.968Z,22.90
2019-04-22T15:21:43.035Z,22.93
2019-04-22T15:24:10.829Z,23.25
2019-04-22T15:26:38.253Z,23.30
2019-04-22T15:29:11.377Z,23.82
2019-04-22T15:31:35.362Z,24.02
2019-04-22T15:34:02.729Z,24.64
2019-04-22T15:36:30.489Z,25.32
2019-04-22T15:38:57.636Z,25.37
2019-04-22T15:41:24.926Z,25.31
2019-04-22T15:43:52.102Z,25.88
2019-04-22T15:46:20.213Z,26.09
2019-04-22T15:48:48.465Z,26.32
2019-04-22T15:51:16.525Z,26.44
2019-04-22T15:53:43.542Z,26.46
2019-04-22T15:56:10.606Z,27.12
2019-04-22T15:58:37.583Z,27.09
2019-04-22T16:01:12.936Z,27.17
2019-04-22T16:03:34.311Z,27.50
2019-04-22T16:06:02.157Z,27.51
2019-04-22T16:08:31.966Z,28.17
2019-04-22T16:10:57.870Z,28.76
2019-04-22T16:13:28.348Z,28.88
2019-04-22T16:15:54.461Z,29.28
2019-04-22T16:18:22.497Z,29.72
2019-04-22T16:20:50.319Z,29.62
2019-04-22T16:23:20.888Z,29.68
2019-04-22T16:25:47.207Z,30.27
2019-04-22T16:28:15.381Z,30.52
2019-04-22T16:30:43.514Z,31.05
2019-04-22T16:33:13.080Z,31.39
2019-04-22T16:35:40.556Z,31.76
2019-04-22T16:38:08.726Z,32.50
2019-04-22T16:40:36.753Z,33.05
2019-04-22T16:43:06.373Z,33.07
2019-04-22T16:45:33.614Z,33.20
2019-04-22T16:48:02.042Z,33.55
2019-04-22T16:50:29.268Z,34.13
2019-04-22T16:52:57.758Z,34.67
2019-04-22T16:55:24.712Z,35.31
2019-04-22T16:57:52.566Z,35.74
2019-04-22T17:00:20.636Z,36.36
2019-04-22T17:02:50.079Z,36.65
2019-04-22T17:05:17.901Z,37.13
2019-04-22T17:07:45.727Z,37.35
2019-04-22T17:10:15.537Z,37.53
2019-04-22T17:12:53.153Z,38.00
2019-04-22T17:15:18.035Z,38.19
2019-04-22T17:17:49.152Z,38.56
2019-04-22T17:20:17.410Z,38.88
2019-04-22T17:22:44.271Z,38.94
2019-04-22T17:25:12.051Z,39.15
2019-04-22T17:27:39.289Z,39.59
2019-04-22T17:30:08.494Z,39.78
2019-04-22T17:32:35.726Z,40.31
2019-04-22T17:35:06.368Z,40.70
2019-04-22T17:37:35.443Z,41.01
2019-04-22T17:40:21.971Z,41.29
2019-04-22T17:42:50.586Z,41.43
2019-04-22T17:45:25.992Z,41.82
2019-04-22T17:47:49.335Z,41.73
2019-04-22T17:50:28.584Z,42.03
2019-04-22T17:53:07.234Z,42.10
2019-04-22T17:55:21.403Z,42.42
2019-04-22T17:57:49.518Z,42.47
2019-04-22T18:00:19.041Z,42.69
2019-04-22T18:02:45.966Z,43.02
2019-04-22T18:05:03.492Z,43.40
2019-04-22T18:07:42.969Z,43.63
2019-04-22T18:10:30.721Z,43.87
2019-04-22T18:12:50.119Z,44.44
2019-04-22T18:15:15.830Z,44.42
2019-04-22T18:17:43.663Z,44.60
2019-04-22T18:20:04.566Z,44.77
2019-04-22T18:22:31.122Z,45.09
2019-04-22T18:24:58.323Z,45.17
2019-04-22T18:27:48.520Z,45.45
2019-04-22T18:29:57.149Z,45.56
2019-04-22T18:32:25.536Z,45.68
2019-04-22T18:34:51.662Z,45.88
2019-04-22T18:37:19.904Z,46.15
2019-04-22T18:39:58.710Z,46.22
2019-04-22T18:42:22.001Z,46.53
2019-04-22T18:45:09.916Z,46.51
2019-04-22T18:47:18.636Z,46.60
2019-04-22T18:49:46.275Z,46.64
2019-04-22T18:52:19.721Z,46.78
2019-04-22T18:54:45.777Z,46.98
2019-04-22T18:57:15.564Z,47.22
2019-04-22T18:59:31.229Z,47.30
2019-04-22T19:02:01.461Z,47.44
2019-04-22T19:04:31.694Z,47.37
2019-04-22T19:07:17.124Z,47.64
2019-04-22T19:09:49.956Z,47.79
2019-04-22T19:14:45.543Z,48.03
2019-04-22T19:17:21.519Z,48.12
2019-04-22T19:22:03.512Z,48.23
2019-04-22T19:24:34.386Z,48.49
2019-04-22T19:27:09.312Z,48.81
2019-04-22T19:29:39.240Z,48.87
2019-04-22T19:32:07.263Z,48.97
2019-04-22T19:34:32.258Z,48.97
2019-04-22T19:37:03.518Z,49.07
2019-04-22T19:39:27.538Z,49.16
2019-04-22T19:42:01.903Z,49.38
2019-04-22T19:44:30.844Z,49.35
2019-04-22T19:47:14.350Z,49.58
2019-04-22T19:49:31.745Z,49.53
2019-04-22T19:52:05.549Z,49.50
2019-04-22T19:54:27.676Z,49.73
2019-04-22T19:56:44.530Z,49.72
2019-04-22T19:59:11.830Z,49.68
2019-04-22T20:01:48.564Z,49.67
2019-04-22T20:04:22.988Z,49.60
2019-04-22T20:06:47.964Z,49.48
2019-04-22T20:09:21.021Z,49.54
2019-04-22T20:11:48.069Z,49.43
2019-04-22T20:14:12.568Z,49.65
2019-04-22T20:16:46.911Z,49.60
2019-04-22T20:19:12.409Z,49.54
2019-04-22T20:21:40.303Z,49.47
2019-04-22T20:23:55.916Z,49.38
2019-04-22T20:26:40.763Z,49.34
2019-04-22T20:29:02.778Z,49.38
2019-04-22T20:31:31.756Z,49.43
2019-04-22T20:34:03.513Z,49.35
2019-04-22T20:38:54.822Z,49.30
2019-04-22T20:41:23.069Z,49.33
2019-04-22T20:43:57.281Z,49.34
2019-04-22T20:46:25.319Z,49.38
2019-04-22T20:48:54.831Z,49.28
2019-04-22T20:51:29.738Z,49.17
2019-04-22T20:53:56.548Z,49.02
2019-04-22T20:56:18.709Z,49.07
2019-04-22T20:58:46.605Z,49.06
2019-04-22T21:01:10.390Z,48.92
2019-04-22T21:03:33.314Z,48.79
2019-04-22T21:06:11.633Z,48.74
2019-04-22T21:08:42.173Z,48.78
2019-04-22T21:11:04.811Z,48.34
2019-04-22T21:13:33.022Z,48.40
2019-04-22T21:16:10.558Z,48.19
2019-04-22T21:18:30.627Z,48.10
2019-04-22T21:21:09.641Z,47.83
2019-04-22T21:23:27.665Z,47.81
2019-04-22T21:26:05.271Z,47.59
2019-04-22T21:28:33.197Z,47.58
2019-04-22T21:30:56.845Z,47.64
2019-04-22T21:33:20.971Z,47.37
2019-04-22T21:38:26.559Z,47.12
2019-04-22T21:40:47.496Z,47.34
2019-04-22T21:43:24.463Z,47.40
2019-04-22T21:45:53.104Z,47.46
2019-04-22T21:48:27.922Z,47.41
2019-04-22T21:50:58.468Z,47.61
2019-04-22T21:53:25.180Z,47.67
2019-04-22T21:55:50.689Z,47.48
2019-04-22T21:58:12.551Z,47.16
2019-04-22T22:00:54.178Z,47.14
2019-04-22T22:03:14.325Z,47.01
2019-04-22T22:05:30.026Z,46.87
2019-04-22T22:08:04.070Z,46.66
2019-04-22T22:10:43.465Z,46.77
2019-04-22T22:13:06.209Z,46.72
2019-04-22T22:15:37.651Z,46.63
2019-04-22T22:18:02.069Z,46.60
2019-04-22T22:20:31.022Z,46.64
2019-04-22T22:23:12.429Z,46.83
2019-04-22T22:25:30.160Z,46.89
2019-04-22T22:27:53.422Z,46.94
2019-04-22T22:30:45.876Z,46.95
2019-04-22T22:33:01.360Z,47.12
2019-04-22T22:35:25.721Z,47.00
2019-04-22T22:37:57.571Z,46.85
2019-04-22T22:40:11.823Z,46.69
2019-04-22T22:42:40.450Z,46.78
2019-04-22T22:45:19.250Z,46.63
2019-04-22T22:47:53.379Z,46.33
2019-04-22T22:50:25.963Z,46.06
2019-04-22T22:53:09.677Z,45.94
2019-04-22T22:55:31.323Z,45.44
2019-04-22T22:57:58.502Z,45.27
2019-04-22T23:00:33.892Z,45.44
2019-04-22T23:03:16.852Z,45.36
2019-04-22T23:05:35.363Z,45.60
2019-04-22T23:08:00.770Z,45.73
2019-04-22T23:10:34.055Z,45.57
2019-04-22T23:13:05.295Z,45.62
2019-04-22T23:15:26.098Z,45.29
2019-04-22T23:17:39.008Z,45.44
2019-04-22T23:20:07.241Z,45.80
2019-04-22T23:22:50.941Z,45.88
2019-04-22T23:25:27.310Z,45.87
2019-04-22T23:27:49.147Z,45.80
2019-04-22T23:30:15.905Z,45.98
2019-04-22T23:32:44.165Z,46.06
2019-04-22T23:35:22.931Z,46.11
2019-04-22T23:37:54.286Z,46.32
2019-04-22T23:42:53.001Z,46.68
2019-04-22T23:45:21.182Z,46.86
2019-04-22T23:47:42.363Z,47.04
2019-04-22T23:50:24.462Z,47.39
2019-04-22T23:52:49.420Z,47.21
2019-04-22T23:55:17.763Z,47.38
2019-04-22T23:57:50.536Z,47.53
